Time;durP1;ratioP1;P1;durP2;ratioP2;P2;SDS_P1;SDS_P2;PMS_P1;PMS_P2;Temp;Humidity;BMP_temperature;BMP_pressure;BME280_temperature;BME280_humidity;BME280_pressure;Samples;Min_cycle;Max_cycle;Signal;HPM_P1;HPM_P2
2022/08/30 00:03:24;;;;;;;3.93;3.10;;;16.20;99.90;;;;;;5037546;28;20189;-80
2022/08/30 00:05:50;;;;;;;5.60;2.90;;;16.20;99.90;;;;;;5019511;28;20178;-80
2022/08/30 00:08:16;;;;;;;2.93;2.57;;;16.10;99.90;;;;;;5017971;28;20173;-80
2022/08/30 00:10:42;;;;;;;3.93;2.73;;;16.00;99.90;;;;;;5016856;28;20170;-80
2022/08/30 00:13:11;;;;;;;4.00;2.60;;;16.00;99.90;;;;;;5016898;28;20167;-80
2022/08/30 00:15:37;;;;;;;5.20;3.03;;;16.00;99.90;;;;;;5016715;28;20550;-81
2022/08/30 00:18:03;;;;;;;4.63;2.90;;;16.00;99.90;;;;;;5020180;28;20176;-81
2022/08/30 00:20:31;;;;;;;4.87;3.10;;;15.90;99.90;;;;;;5020526;28;20237;-80
2022/08/30 00:22:56;;;;;;;3.80;2.83;;;16.00;99.90;;;;;;5020027;28;20176;-80
2022/08/30 00:25:24;;;;;;;5.33;3.40;;;15.90;99.90;;;;;;5020291;28;20220;-80
2022/08/30 00:27:49;;;;;;;5.03;2.90;;;15.70;99.90;;;;;;5018391;28;20616;-80
2022/08/30 00:30:17;;;;;;;5.07;2.90;;;15.70;99.90;;;;;;5019731;28;20171;-81
2022/08/30 00:32:43;;;;;;;3.80;3.03;;;15.60;99.90;;;;;;5019874;28;20191;-80
2022/08/30 00:35:11;;;;;;;4.57;3.10;;;15.70;99.90;;;;;;5037489;28;20199;-81
2022/08/30 00:37:37;;;;;;;5.37;3.03;;;15.70;99.90;;;;;;5020724;28;20186;-80
2022/08/30 00:40:04;;;;;;;4.23;3.20;;;15.80;99.90;;;;;;5020249;28;20319;-80
2022/08/30 00:42:31;;;;;;;3.10;2.73;;;15.90;99.90;;;;;;5020113;28;20177;-80
2022/08/30 00:44:57;;;;;;;3.53;3.17;;;15.80;99.90;;;;;;5020318;28;20180;-80
2022/08/30 00:47:23;;;;;;;6.00;3.13;;;15.70;99.90;;;;;;5019711;28;20193;-80
2022/08/30 00:49:51;;;;;;;10.13;3.57;;;15.60;99.90;;;;;;5017409;28;20228;-80
2022/08/30 00:52:18;;;;;;;5.57;3.17;;;15.50;99.90;;;;;;5019278;28;20232;-81
2022/08/30 00:54:45;;;;;;;4.67;3.40;;;15.50;99.90;;;;;;5019567;28;21935;-80
2022/08/30 00:57:13;;;;;;;3.70;3.00;;;15.40;99.90;;;;;;5018979;28;20277;-80
2022/08/30 00:59:40;;;;;;;5.53;3.10;;;15.50;99.90;;;;;;5018881;28;20170;-80
2022/08/30 01:02:06;;;;;;;9.97;3.43;;;15.40;99.90;;;;;;5019157;28;20171;-80
2022/08/30 01:04:33;;;;;;;3.43;2.97;;;15.50;99.90;;;;;;5018997;28;20315;-80
2022/08/30 01:06:59;;;;;;;4.70;3.10;;;15.50;99.90;;;;;;5019534;28;20220;-81
2022/08/30 01:09:25;;;;;;;3.97;3.17;;;15.40;99.90;;;;;;5018707;28;20182;-80
2022/08/30 01:11:51;;;;;;;6.90;3.50;;;15.30;99.90;;;;;;5018916;28;20199;-80
2022/08/30 01:14:20;;;;;;;3.20;3.00;;;15.20;99.90;;;;;;5019063;28;20166;-80
2022/08/30 01:16:46;;;;;;;4.50;3.37;;;15.20;99.90;;;;;;5017356;28;20687;-80
2022/08/30 01:19:50;;;;;;;3.17;2.87;;;15.30;99.90;;;;;;5015573;28;20162;-80
2022/08/30 01:22:36;;;;;;;3.30;3.10;;;15.30;99.90;;;;;;5007735;28;20186;-80
2022/08/30 01:25:04;;;;;;;4.07;3.00;;;15.30;99.90;;;;;;5015321;28;20644;-80
2022/08/30 01:27:31;;;;;;;3.30;2.97;;;15.40;99.90;;;;;;5015446;28;20734;-80
2022/08/30 01:29:57;;;;;;;4.00;2.70;;;15.40;99.90;;;;;;5015424;28;20207;-80
2022/08/30 01:32:27;;;;;;;3.43;2.97;;;15.30;99.90;;;;;;5015269;28;20197;-80
2022/08/30 01:34:54;;;;;;;3.37;3.03;;;15.20;99.90;;;;;;5013960;28;20193;-80
2022/08/30 01:37:27;;;;;;;5.03;2.93;;;15.20;99.90;;;;;;5015388;28;20563;-80
2022/08/30 01:39:53;;;;;;;3.40;3.10;;;15.10;99.90;;;;;;5015371;28;20178;-80
2022/08/30 01:42:20;;;;;;;5.33;3.10;;;15.00;99.90;;;;;;5035402;28;20554;-81
2022/08/30 01:44:47;;;;;;;3.53;2.87;;;14.90;99.90;;;;;;5015477;28;20173;-80
2022/08/30 01:47:13;;;;;;;3.70;3.23;;;15.00;99.90;;;;;;5015528;28;20281;-80
2022/08/30 01:49:40;;;;;;;3.80;3.07;;;15.00;99.90;;;;;;5015211;28;20166;-80
2022/08/30 01:52:07;;;;;;;3.17;2.87;;;14.90;99.90;;;;;;5013499;28;20190;-80
2022/08/30 01:54:34;;;;;;;6.77;3.20;;;14.80;99.90;;;;;;5015403;28;20256;-80
2022/08/30 01:57:01;;;;;;;7.40;3.67;;;14.90;99.90;;;;;;5015025;28;20193;-80
2022/08/30 01:59:27;;;;;;;3.33;3.10;;;14.80;99.90;;;;;;5014898;28;20170;-80
2022/08/30 02:01:52;;;;;;;3.30;3.00;;;14.90;99.90;;;;;;5014983;28;20238;-80
2022/08/30 02:04:18;;;;;;;8.20;3.50;;;15.10;99.90;;;;;;5014975;28;20170;-80
2022/08/30 02:06:45;;;;;;;3.70;3.40;;;15.00;99.90;;;;;;5014687;28;21985;-80
2022/08/30 02:09:11;;;;;;;4.20;3.33;;;15.00;99.90;;;;;;5014002;28;20187;-80
2022/08/30 02:11:37;;;;;;;6.53;3.20;;;14.90;99.90;;;;;;5014275;28;20561;-80
2022/08/30 02:14:04;;;;;;;4.00;2.90;;;14.90;99.90;;;;;;5014568;28;20176;-80
2022/08/30 02:16:30;;;;;;;3.70;3.07;;;14.90;99.90;;;;;;5014733;28;20209;-80
2022/08/30 02:18:56;;;;;;;3.30;3.00;;;14.80;99.90;;;;;;5016714;28;20235;-80
2022/08/30 02:21:23;;;;;;;3.67;3.00;;;14.80;99.90;;;;;;5016410;28;20169;-80
2022/08/30 02:23:49;;;;;;;5.63;3.63;;;14.90;99.90;;;;;;5015761;28;20181;-80
2022/08/30 02:26:16;;;;;;;4.70;3.10;;;14.80;99.90;;;;;;5016191;28;20228;-80
2022/08/30 02:28:43;;;;;;;5.67;3.03;;;14.80;99.90;;;;;;5016154;28;20174;-80
2022/08/30 02:31:09;;;;;;;3.67;3.10;;;14.70;99.90;;;;;;5015759;28;20254;-80
2022/08/30 02:33:36;;;;;;;3.13;2.83;;;14.80;99.90;;;;;;5033983;28;20173;-80
2022/08/30 02:36:03;;;;;;;6.37;3.23;;;14.80;99.90;;;;;;5015986;28;20192;-80
2022/08/30 02:38:29;;;;;;;3.67;3.27;;;14.80;99.90;;;;;;5016359;28;20250;-80
2022/08/30 02:40:54;;;;;;;3.50;3.20;;;14.70;99.90;;;;;;5015691;28;20204;-80
2022/08/30 02:43:20;;;;;;;3.63;3.23;;;14.90;99.90;;;;;;5016081;28;20216;-80
2022/08/30 02:45:46;;;;;;;3.70;3.40;;;14.80;99.90;;;;;;5015393;28;20545;-80
2022/08/30 02:48:12;;;;;;;5.37;3.37;;;14.80;99.90;;;;;;5015827;28;20165;-80
2022/08/30 02:50:42;;;;;;;6.43;3.47;;;14.70;99.90;;;;;;5033780;28;20196;-80
2022/08/30 02:53:08;;;;;;;3.90;3.43;;;14.70;99.90;;;;;;5016159;28;20205;-80
2022/08/30 02:55:34;;;;;;;6.00;3.53;;;14.60;99.90;;;;;;5015728;28;20220;-80
2022/08/30 02:57:59;;;;;;;4.53;3.10;;;14.60;99.90;;;;;;5015356;28;20678;-80
2022/08/30 03:00:25;;;;;;;4.73;3.40;;;14.60;99.90;;;;;;5015684;28;20600;-80
2022/08/30 03:02:51;;;;;;;3.63;3.33;;;14.60;99.90;;;;;;5015398;28;20662;-80
2022/08/30 03:05:17;;;;;;;5.70;3.10;;;14.60;99.90;;;;;;5015343;28;20184;-80
2022/08/30 03:07:44;;;;;;;8.13;3.13;;;14.60;99.90;;;;;;5033550;28;20234;-80
2022/08/30 03:10:10;;;;;;;3.43;3.10;;;14.60;99.90;;;;;;5015226;28;20172;-80
2022/08/30 03:12:36;;;;;;;3.20;2.90;;;14.50;99.90;;;;;;5014765;28;20248;-80
2022/08/30 03:15:04;;;;;;;3.87;3.47;;;14.60;99.90;;;;;;5015336;28;20169;-80
2022/08/30 03:17:30;;;;;;;9.23;3.10;;;14.70;99.90;;;;;;5014278;28;20624;-80
2022/08/30 03:20:00;;;;;;;3.87;3.20;;;14.60;99.90;;;;;;5014279;28;20171;-80
2022/08/30 03:22:27;;;;;;;5.47;3.40;;;14.50;99.90;;;;;;5014164;28;20265;-80
2022/08/30 03:24:56;;;;;;;5.93;3.73;;;14.50;99.90;;;;;;5014625;28;20169;-80
2022/08/30 03:27:22;;;;;;;5.43;3.57;;;14.40;99.90;;;;;;5014403;28;20200;-80
2022/08/30 03:29:48;;;;;;;4.60;3.50;;;14.30;99.90;;;;;;5032137;28;20252;-80
2022/08/30 03:32:17;;;;;;;6.70;3.47;;;14.30;99.90;;;;;;5014131;28;20188;-80
2022/08/30 03:34:43;;;;;;;5.33;3.50;;;14.40;99.90;;;;;;5014125;28;20166;-80
2022/08/30 03:37:08;;;;;;;4.70;3.37;;;14.40;99.90;;;;;;5014457;28;20216;-80
2022/08/30 03:39:34;;;;;;;6.13;3.60;;;14.50;99.90;;;;;;5013864;28;20162;-80
2022/08/30 03:42:00;;;;;;;4.10;3.47;;;14.40;99.90;;;;;;5013696;28;20192;-80
2022/08/30 03:44:25;;;;;;;6.07;3.70;;;14.40;99.90;;;;;;5013902;28;20228;-80
2022/08/30 03:46:51;;;;;;;3.87;3.57;;;14.30;99.90;;;;;;5014163;28;20201;-80
2022/08/30 03:49:17;;;;;;;5.60;3.37;;;14.30;99.90;;;;;;5013996;28;20178;-80
2022/08/30 03:51:43;;;;;;;4.50;3.40;;;14.30;99.90;;;;;;5031383;28;20205;-80
2022/08/30 03:54:09;;;;;;;6.30;3.87;;;14.40;99.90;;;;;;5014774;28;20565;-80
2022/08/30 03:56:35;;;;;;;10.60;3.73;;;14.30;99.90;;;;;;5016072;28;20189;-80
2022/08/30 03:59:01;;;;;;;5.93;3.43;;;14.20;99.90;;;;;;5017524;28;20664;-80
2022/08/30 04:01:27;;;;;;;3.83;3.43;;;14.30;99.90;;;;;;5016956;28;20211;-80
2022/08/30 04:03:52;;;;;;;5.93;3.50;;;14.40;99.90;;;;;;5017530;28;20174;-80
2022/08/30 04:06:18;;;;;;;4.27;3.60;;;14.30;99.90;;;;;;5017041;28;20308;-81
2022/08/30 04:08:44;;;;;;;6.43;3.23;;;14.20;99.90;;;;;;5017883;28;20538;-80
2022/08/30 04:11:11;;;;;;;5.37;3.53;;;14.20;99.90;;;;;;5016511;28;20199;-80
2022/08/30 04:13:37;;;;;;;4.03;3.70;;;14.20;99.90;;;;;;5017197;28;20591;-80
2022/08/30 04:16:03;;;;;;;4.87;3.87;;;14.10;99.90;;;;;;5016862;28;20208;-80
2022/08/30 04:18:28;;;;;;;5.90;3.70;;;14.10;99.90;;;;;;5017603;28;20228;-81
2022/08/30 04:20:54;;;;;;;5.97;4.00;;;14.00;99.90;;;;;;5017463;28;20173;-80
2022/08/30 04:23:20;;;;;;;8.07;3.60;;;14.10;99.90;;;;;;5015142;28;20176;-80
2022/08/30 04:25:46;;;;;;;5.87;3.50;;;14.20;99.90;;;;;;5017564;28;20219;-81
2022/08/30 04:28:12;;;;;;;10.40;4.20;;;14.20;99.90;;;;;;5018262;28;20173;-83
2022/08/30 04:30:42;;;;;;;4.60;3.67;;;14.10;99.90;;;;;;5029536;28;20185;-82
2022/08/30 04:33:10;;;;;;;4.83;3.97;;;14.10;99.90;;;;;;5026902;28;20197;-82
2022/08/30 04:35:35;;;;;;;4.67;3.70;;;14.10;99.90;;;;;;5027077;28;20203;-82
2022/08/30 04:38:02;;;;;;;6.57;3.90;;;14.10;99.90;;;;;;5028961;28;20177;-82
2022/08/30 04:40:27;;;;;;;5.47;4.37;;;14.00;99.90;;;;;;5027836;28;20180;-82
2022/08/30 04:42:53;;;;;;;6.80;4.47;;;13.90;99.90;;;;;;5029144;28;20182;-82
2022/08/30 04:45:20;;;;;;;5.00;4.37;;;14.00;99.90;;;;;;5028904;28;20661;-82
2022/08/30 04:47:46;;;;;;;9.23;4.73;;;13.90;99.90;;;;;;5031595;28;20720;-82
2022/08/30 04:50:15;;;;;;;6.53;4.37;;;13.90;99.90;;;;;;5033122;28;20170;-82
2022/08/30 04:52:41;;;;;;;7.50;4.43;;;13.90;99.90;;;;;;5032000;28;20252;-82
2022/08/30 04:55:08;;;;;;;5.30;4.50;;;13.90;99.90;;;;;;5031887;28;20172;-82
2022/08/30 04:57:34;;;;;;;9.10;4.30;;;14.00;99.90;;;;;;5031243;28;20193;-82
2022/08/30 05:00:00;;;;;;;6.97;4.00;;;13.90;99.90;;;;;;5027004;28;20173;-81
2022/08/30 05:02:26;;;;;;;4.63;4.07;;;14.00;99.90;;;;;;5024437;28;20538;-81
2022/08/30 05:07:36;;;;;;;7.23;4.00;;;14.10;99.90;;;;;;5039351;28;20560;-81
2022/08/30 05:10:03;;;;;;;5.13;4.50;;;14.10;99.90;;;;;;5020701;28;20265;-81
2022/08/30 05:12:29;;;;;;;5.83;3.80;;;14.10;99.90;;;;;;5019547;28;20189;-82
2022/08/30 05:14:57;;;;;;;5.97;4.10;;;14.00;99.90;;;;;;5027390;28;20177;-81
2022/08/30 05:17:23;;;;;;;5.93;3.83;;;14.10;99.90;;;;;;5022588;28;20209;-81
2022/08/30 05:19:49;;;;;;;8.03;3.63;;;14.10;99.90;;;;;;5019173;28;20212;-81
2022/08/30 05:22:14;;;;;;;6.50;3.80;;;14.20;99.90;;;;;;5018445;28;20174;-81
2022/08/30 05:24:40;;;;;;;8.77;3.90;;;14.20;99.90;;;;;;5019076;28;20185;-81
2022/08/30 05:27:06;;;;;;;6.43;4.07;;;14.20;99.90;;;;;;5019388;28;20203;-81
2022/08/30 05:29:32;;;;;;;6.00;4.00;;;14.20;99.90;;;;;;5019119;28;20558;-81
2022/08/30 05:31:58;;;;;;;6.70;4.20;;;14.20;99.90;;;;;;5018199;28;20202;-81
2022/08/30 05:34:24;;;;;;;7.20;3.73;;;14.20;99.90;;;;;;5019087;28;20168;-81
2022/08/30 05:36:50;;;;;;;5.73;3.77;;;14.30;99.90;;;;;;5016904;28;20276;-81
2022/08/30 05:39:15;;;;;;;5.23;3.80;;;14.50;99.90;;;;;;5018935;28;20197;-81
2022/08/30 05:41:41;;;;;;;5.17;3.50;;;14.50;99.90;;;;;;5017490;28;20173;-81
2022/08/30 05:44:08;;;;;;;5.93;3.20;;;14.50;99.90;;;;;;5036069;28;20252;-81
2022/08/30 05:46:35;;;;;;;4.43;3.40;;;14.60;99.90;;;;;;5018412;28;20193;-80
2022/08/30 05:49:03;;;;;;;5.43;3.17;;;14.70;99.90;;;;;;5018139;28;20190;-81
2022/08/30 05:51:30;;;;;;;3.83;2.47;;;14.90;99.90;;;;;;5017474;28;20194;-80
2022/08/30 05:53:58;;;;;;;3.00;2.47;;;15.00;99.90;;;;;;5017550;28;20173;-81
2022/08/30 05:56:30;;;;;;;4.73;2.47;;;15.20;99.90;;;;;;5016734;28;20189;-81
2022/08/30 05:58:56;;;;;;;5.07;2.63;;;15.20;99.90;;;;;;5033587;28;20170;-81
2022/08/30 06:01:26;;;;;;;8.27;2.40;;;15.30;99.90;;;;;;5017662;28;20180;-81
2022/08/30 06:03:53;;;;;;;5.33;2.40;;;15.50;99.90;;;;;;5014878;28;20183;-81
2022/08/30 06:06:19;;;;;;;1.93;1.83;;;15.80;99.90;;;;;;5016346;28;20244;-81
2022/08/30 06:08:47;;;;;;;9.63;2.30;;;16.10;99.90;;;;;;5035422;28;20201;-82
2022/08/30 06:11:14;;;;;;;3.97;1.97;;;16.20;99.90;;;;;;5021821;28;20197;-82
2022/08/30 06:13:40;;;;;;;2.93;1.93;;;16.40;99.90;;;;;;5018279;28;20173;-83
2022/08/30 06:16:06;;;;;;;4.60;2.07;;;16.60;99.90;;;;;;5016909;28;20316;-83
2022/08/30 06:18:32;;;;;;;4.80;1.87;;;16.70;99.90;;;;;;5018484;28;20657;-83
2022/08/30 06:20:58;;;;;;;5.33;1.73;;;17.10;99.90;;;;;;5017904;28;20170;-83
2022/08/30 06:23:24;;;;;;;2.07;1.73;;;17.20;99.90;;;;;;5018231;28;20177;-82
2022/08/30 06:25:49;;;;;;;3.90;1.90;;;17.50;99.90;;;;;;5019628;28;20162;-82
2022/08/30 06:28:15;;;;;;;5.47;1.80;;;17.80;99.90;;;;;;5019628;28;20693;-83
2022/08/30 06:30:41;;;;;;;3.10;1.70;;;18.00;99.90;;;;;;5019350;28;20234;-83
2022/08/30 06:33:08;;;;;;;3.80;2.03;;;18.10;99.90;;;;;;5018004;28;20583;-83
2022/08/30 06:35:35;;;;;;;4.10;1.77;;;18.30;99.90;;;;;;5019543;28;20261;-82
2022/08/30 06:38:01;;;;;;;7.45;2.00;;;18.60;99.90;;;;;;5045942;23;20217;-79
2022/08/30 06:40:27;;;;;;;6.75;2.00;;;18.60;99.90;;;;;;5040384;28;20585;-80
2022/08/30 06:42:53;;;;;;;4.68;1.70;;;18.80;99.90;;;;;;5040846;28;20177;-80
2022/08/30 06:45:19;;;;;;;6.60;2.03;;;18.90;99.90;;;;;;5040332;28;20174;-79
2022/08/30 06:47:45;;;;;;;5.40;1.63;;;19.50;99.90;;;;;;5041164;28;20239;-81
2022/08/30 06:50:13;;;;;;;4.35;1.70;;;19.80;99.90;;;;;;5040567;28;20638;-81
2022/08/30 06:52:41;;;;;;;2.70;2.10;;;19.80;99.90;;;;;;5039710;28;20205;-81
2022/08/30 06:55:08;;;;;;;7.50;1.90;;;19.90;99.90;;;;;;5040118;28;20173;-81
2022/08/30 06:57:34;;;;;;;3.47;1.65;;;20.20;99.90;;;;;;5041196;28;20189;-81
2022/08/30 07:00:01;;;;;;;4.28;1.65;;;19.90;99.90;;;;;;5044120;28;20177;-80
2022/08/30 07:02:27;;;;;;;1.83;1.55;;;19.80;99.90;;;;;;5043427;28;20200;-80
2022/08/30 07:04:52;;;;;;;2.83;1.50;;;20.30;99.90;;;;;;5046647;28;20177;-81
2022/08/30 07:07:18;;;;;;;5.65;1.65;;;20.50;99.90;;;;;;5046059;28;20239;-80
2022/08/30 07:09:44;;;;;;;2.38;1.45;;;20.60;99.90;;;;;;5041178;28;20546;-81
2022/08/30 07:12:11;;;;;;;1.95;1.60;;;21.00;99.90;;;;;;5040901;28;20539;-81
2022/08/30 07:14:38;;;;;;;2.70;1.50;;;20.90;99.90;;;;;;5038582;28;20258;-80
2022/08/30 07:18:49;;;;;;;3.92;1.40;;;20.80;99.90;;;;;;5038413;28;20201;-81
2022/08/30 07:19:50;;;;;;;3.10;1.25;;;21.20;99.90;;;;;;5055755;28;20256;-82
2022/08/30 07:22:16;;;;;;;3.65;1.40;;;21.30;99.90;;;;;;5037678;28;20683;-79
2022/08/30 07:24:42;;;;;;;2.88;1.50;;;21.20;99.90;;;;;;5036380;28;20177;-79
2022/08/30 07:27:08;;;;;;;1.45;1.20;;;21.30;99.90;;;;;;5034454;28;20232;-77
2022/08/30 07:29:33;;;;;;;4.43;1.55;;;21.30;99.90;;;;;;5035141;28;20204;-79
2022/08/30 07:31:59;;;;;;;3.70;1.40;;;21.40;99.90;;;;;;5036095;28;20622;-78
2022/08/30 07:34:25;;;;;;;2.83;1.30;;;21.00;99.90;;;;;;5036532;28;20175;-79
2022/08/30 07:36:51;;;;;;;3.17;1.10;;;21.50;99.90;;;;;;5036611;28;20554;-78
2022/08/30 07:39:17;;;;;;;1.20;1.10;;;22.00;99.90;;;;;;5035665;28;20177;-81
2022/08/30 07:41:43;;;;;;;1.70;1.60;;;21.90;99.90;;;;;;5035442;28;20637;-79
2022/08/30 07:44:09;;;;;;;1.40;1.30;;;22.40;99.90;;;;;;5035599;28;20169;-77
2022/08/30 07:46:37;;;;;;;1.30;1.20;;;22.70;99.90;;;;;;5034891;28;20197;-77
2022/08/30 07:49:03;;;;;;;6.20;1.52;;;21.90;99.90;;;;;;5035136;28;20602;-78
2022/08/30 07:51:29;;;;;;;4.32;1.20;;;22.10;99.90;;;;;;5035720;28;20783;-78
2022/08/30 07:53:56;;;;;;;2.08;1.15;;;22.70;99.90;;;;;;5036187;28;20169;-77
2022/08/30 07:56:22;;;;;;;1.48;1.10;;;22.90;99.90;;;;;;5035264;28;20193;-77
2022/08/30 07:58:48;;;;;;;3.83;1.30;;;23.20;99.90;;;;;;5035633;28;20214;-79
2022/08/30 08:01:15;;;;;;;2.92;1.10;;;23.10;99.90;;;;;;5035477;28;20170;-77
2022/08/30 08:03:42;;;;;;;1.10;1.10;;;23.00;99.90;;;;;;5035354;28;20178;-80
2022/08/30 08:06:10;;;;;;;5.07;1.35;;;23.00;99.90;;;;;;5035392;28;20197;-77
2022/08/30 08:08:37;;;;;;;2.70;1.42;;;23.30;99.90;;;;;;5036046;28;20173;-79
2022/08/30 08:11:08;;;;;;;4.30;1.23;;;23.50;99.90;;;;;;5035011;28;20169;-77
2022/08/30 08:13:35;;;;;;;3.92;1.27;;;24.00;99.90;;;;;;5035219;28;20579;-77
2022/08/30 08:16:01;;;;;;;3.85;1.10;;;23.60;99.90;;;;;;5035367;28;20250;-79
2022/08/30 08:18:26;;;;;;;1.88;1.27;;;23.40;99.90;;;;;;5035092;28;20173;-79
2022/08/30 08:20:52;;;;;;;3.33;1.30;;;23.60;99.90;;;;;;5035704;28;20173;-78
2022/08/30 08:23:17;;;;;;;32.78;2.95;;;23.50;99.90;;;;;;5039372;28;20173;-77
2022/08/30 08:25:43;;;;;;;2.20;1.20;;;24.10;99.90;;;;;;5038906;28;20176;-77
2022/08/30 08:28:09;;;;;;;1.27;1.10;;;24.40;99.80;;;;;;5038989;28;20231;-79
2022/08/30 08:30:36;;;;;;;2.38;0.80;;;24.20;99.80;;;;;;5039852;28;20264;-79
2022/08/30 08:33:02;;;;;;;2.20;1.00;;;24.40;99.80;;;;;;5039262;28;20205;-77
2022/08/30 08:35:28;;;;;;;4.68;1.30;;;24.20;99.20;;;;;;5039840;28;20260;-77
2022/08/30 08:37:54;;;;;;;4.97;1.33;;;24.00;98.40;;;;;;5038832;28;20248;-79
2022/08/30 08:40:20;;;;;;;1.00;0.90;;;23.50;98.70;;;;;;5039030;28;20204;-79
2022/08/30 08:43:00;;;;;;;1.48;1.00;;;24.20;99.00;;;;;;5038761;28;20227;-77
2022/08/30 08:45:39;;;;;;;3.22;1.05;;;24.80;98.40;;;;;;5038529;28;20181;-77
2022/08/30 08:48:08;;;;;;;0.80;0.80;;;23.70;98.70;;;;;;5038484;28;20169;-78
2022/08/30 08:50:35;;;;;;;1.95;1.20;;;24.40;98.10;;;;;;5038527;28;20661;-79
2022/08/30 08:55:52;;;;;;;3.67;1.50;;;25.20;97.50;;;;;;5056592;28;20227;-77
2022/08/30 08:58:27;;;;;;;2.53;1.20;;;24.50;96.40;;;;;;5038419;28;20177;-78
2022/08/30 09:00:55;;;;;;;1.08;0.98;;;23.40;97.60;;;;;;5037679;28;20169;-78
2022/08/30 09:03:23;;;;;;;2.50;1.00;;;23.30;98.20;;;;;;5038561;28;20200;-77
2022/08/30 09:05:49;;;;;;;1.70;1.05;;;23.40;97.30;;;;;;5056714;28;20173;-79
2022/08/30 09:08:18;;;;;;;3.90;1.10;;;23.70;97.90;;;;;;5039271;28;20243;-81
2022/08/30 09:10:59;;;;;;;1.88;1.02;;;23.80;96.80;;;;;;5037986;28;20173;-80
2022/08/30 09:13:25;;;;;;;2.28;1.20;;;23.90;97.20;;;;;;5056310;28;20196;-79
2022/08/30 09:15:53;;;;;;;1.85;1.00;;;24.10;96.80;;;;;;5038659;28;20197;-79
2022/08/30 09:18:19;;;;;;;1.20;1.10;;;24.10;96.90;;;;;;5056069;28;20732;-77
2022/08/30 09:20:47;;;;;;;1.20;1.10;;;24.30;96.90;;;;;;5038986;28;20208;-79
2022/08/30 09:23:13;;;;;;;1.67;0.93;;;24.60;95.30;;;;;;5037631;28;20552;-77
2022/08/30 09:25:59;;;;;;;5.28;1.35;;;24.70;94.70;;;;;;5037988;28;20180;-77
2022/08/30 09:28:28;;;;;;;2.25;1.30;;;24.70;96.00;;;;;;5037795;28;20208;-78
2022/08/30 09:31:17;;;;;;;1.00;1.00;;;24.90;96.00;;;;;;5038194;28;20286;-77
2022/08/30 09:34:04;;;;;;;3.53;1.17;;;24.50;95.40;;;;;;5025059;28;20224;-79
2022/08/30 09:36:40;;;;;;;2.05;1.20;;;24.80;95.50;;;;;;5037718;28;20201;-79
2022/08/30 09:39:27;;;;;;;132.55;8.38;;;23.70;95.90;;;;;;5037660;28;20170;-79
2022/08/30 09:41:53;;;;;;;6.85;1.40;;;23.60;96.20;;;;;;5037676;28;20227;-79
2022/08/30 09:44:28;;;;;;;6.43;1.42;;;23.80;95.10;;;;;;5038282;28;20199;-79
2022/08/30 09:46:56;;;;;;;1.25;1.20;;;24.80;95.20;;;;;;5037682;28;20304;-79
2022/08/30 09:49:40;;;;;;;3.78;1.08;;;24.20;95.70;;;;;;5037685;28;20204;-79
2022/08/30 09:52:46;;;;;;;1.10;1.10;;;25.10;95.00;;;;;;5036360;28;20196;-78
2022/08/30 09:56:08;;;;;;;4.97;1.20;;;24.60;95.30;;;;;;5037536;28;20657;-79
2022/08/30 09:58:58;;;;;;;2.08;1.20;;;24.80;94.60;;;;;;4938653;29;20180;-78
2022/08/30 10:01:31;;;;;;;2.15;1.10;;;24.70;94.30;;;;;;4939069;29;20173;-78
2022/08/30 10:04:17;;;;;;;5.25;1.23;;;24.70;95.20;;;;;;5018661;28;20207;-77
2022/08/30 10:06:50;;;;;;;1.23;1.20;;;24.90;94.30;;;;;;5037257;28;20200;-79
2022/08/30 10:09:30;;;;;;;3.03;1.27;;;24.30;94.60;;;;;;5038118;28;20536;-77
2022/08/30 10:12:03;;;;;;;8.18;1.92;;;25.50;94.20;;;;;;5036956;28;20204;-77
2022/08/30 10:14:52;;;;;;;29.60;2.78;;;26.10;93.40;;;;;;5037074;28;20177;-78
2022/08/30 10:17:46;;;;;;;12.52;1.60;;;25.90;93.50;;;;;;5037103;28;20279;-78
2022/08/30 10:20:23;;;;;;;12.60;1.85;;;24.90;93.00;;;;;;5038076;28;20217;-78
2022/08/30 10:22:55;;;;;;;4.03;1.30;;;25.20;93.80;;;;;;5037231;28;20169;-79
2022/08/30 10:25:35;;;;;;;3.95;1.73;;;24.90;93.50;;;;;;5037434;28;20184;-78
2022/08/30 10:28:08;;;;;;;6.00;1.40;;;24.90;92.10;;;;;;5038205;28;20494;-78
2022/08/30 10:30:37;;;;;;;4.38;1.33;;;25.20;92.90;;;;;;5037279;28;20254;-79
2022/08/30 10:33:08;;;;;;;82.57;5.53;;;25.30;93.10;;;;;;5036703;28;20201;-79
2022/08/30 10:35:47;;;;;;;2.83;1.30;;;26.30;92.90;;;;;;5036326;28;20205;-78
2022/08/30 10:38:19;;;;;;;8.80;1.67;;;26.40;91.90;;;;;;5037455;28;20669;-79
2022/08/30 10:44:08;;;;;;;1.10;1.10;;;27.20;90.50;;;;;;5054336;28;20315;-78
2022/08/30 10:46:36;;;;;;;3.28;1.20;;;25.90;92.00;;;;;;5036838;28;20205;-78
2022/08/30 10:49:07;;;;;;;1.40;1.30;;;25.90;91.00;;;;;;5055257;28;20248;-78
2022/08/30 10:51:45;;;;;;;2.65;1.35;;;26.20;91.10;;;;;;5035708;28;20217;-78
2022/08/30 10:54:35;;;;;;;1.08;1.08;;;26.10;90.60;;;;;;5036514;28;20180;-78
2022/08/30 10:57:01;;;;;;;1.45;1.30;;;25.60;91.60;;;;;;5037246;28;20193;-77
2022/08/30 10:59:27;;;;;;;2.92;1.58;;;26.40;91.00;;;;;;5037454;28;20176;-77
2022/08/30 11:02:22;;;;;;;2.13;1.30;;;26.60;90.30;;;;;;5039100;28;20173;-79
2022/08/30 11:05:09;;;;;;;1.48;1.38;;;26.10;91.50;;;;;;4998380;28;20185;-78
2022/08/30 11:07:42;;;;;;;5.32;1.20;;;26.20;91.00;;;;;;5035967;28;20197;-77
2022/08/30 11:10:31;;;;;;;1.25;1.15;;;25.80;91.20;;;;;;5036333;28;20525;-77
2022/08/30 11:13:04;;;;;;;3.60;1.10;;;25.10;90.60;;;;;;5035349;28;20193;-77
2022/08/30 11:15:35;;;;;;;1.77;1.40;;;25.30;90.50;;;;;;5035240;28;20230;-77
2022/08/30 11:18:11;;;;;;;3.15;1.35;;;26.50;90.60;;;;;;5054250;28;20192;-79
2022/08/30 11:20:39;;;;;;;13.40;1.95;;;25.80;90.60;;;;;;5035534;28;20177;-77
2022/08/30 11:23:33;;;;;;;4.65;1.45;;;26.20;91.50;;;;;;5035105;28;20188;-76
2022/08/30 11:26:06;;;;;;;9.38;1.80;;;26.20;90.20;;;;;;5032471;28;20323;-79
2022/08/30 11:28:34;;;;;;;3.72;1.30;;;26.50;90.00;;;;;;5035644;28;20169;-79
2022/08/30 11:31:07;;;;;;;2.88;1.23;;;27.00;90.60;;;;;;5035470;28;20646;-79
2022/08/30 11:33:47;;;;;;;5.20;1.38;;;27.10;89.20;;;;;;5035096;28;20177;-79
2022/08/30 11:36:28;;;;;;;2.05;1.40;;;26.70;90.40;;;;;;5035797;28;20189;-78
2022/08/30 11:38:54;;;;;;;7.32;1.50;;;26.30;89.40;;;;;;5035685;28;20184;-77
2022/08/30 11:41:36;;;;;;;1.33;1.23;;;26.80;89.80;;;;;;5035712;28;20173;-78
2022/08/30 11:44:31;;;;;;;1.40;1.30;;;27.00;88.60;;;;;;5035166;28;20177;-76
2022/08/30 11:47:00;;;;;;;1.92;1.30;;;25.60;90.00;;;;;;5014532;28;20634;-79
2022/08/30 11:49:45;;;;;;;1.48;1.15;;;25.80;90.70;;;;;;5035142;28;20220;-79
2022/08/30 11:52:32;;;;;;;6.63;1.27;;;26.60;90.60;;;;;;5034229;28;20288;-79
2022/08/30 11:55:07;;;;;;;11.05;1.60;;;26.30;87.90;;;;;;5035287;28;20177;-80
2022/08/30 11:57:39;;;;;;;2.15;1.25;;;27.10;87.10;;;;;;5038791;28;20220;-79
2022/08/30 12:00:06;;;;;;;3.63;1.67;;;28.00;85.60;;;;;;5038973;28;20583;-78
2022/08/30 12:02:49;;;;;;;1.33;1.00;;;29.10;85.10;;;;;;5038546;28;20177;-79
2022/08/30 12:05:37;;;;;;;1.42;1.40;;;29.60;83.50;;;;;;5039032;28;20222;-78
2022/08/30 12:08:05;;;;;;;2.03;1.38;;;29.10;84.10;;;;;;5038852;28;20264;-79
2022/08/30 12:10:38;;;;;;;2.88;1.30;;;28.20;85.10;;;;;;5038905;28;20547;-78
2022/08/30 12:13:04;;;;;;;3.58;1.23;;;26.90;87.40;;;;;;5039133;28;20231;-79
2022/08/30 12:15:50;;;;;;;3.47;1.63;;;26.00;88.50;;;;;;5039353;28;20204;-79
2022/08/30 12:18:28;;;;;;;3.28;1.50;;;26.10;87.70;;;;;;4990003;28;20189;-77
2022/08/30 12:21:00;;;;;;;2.45;1.50;;;26.30;87.20;;;;;;5039819;28;20177;-80
2022/08/30 12:23:30;;;;;;;1.67;1.13;;;25.60;87.20;;;;;;5023898;28;20228;-79
2022/08/30 12:26:17;;;;;;;5.82;1.52;;;26.10;88.30;;;;;;5038994;28;20174;-79
2022/08/30 12:28:45;;;;;;;2.10;1.40;;;26.00;88.80;;;;;;5039237;28;20177;-79
2022/08/30 12:31:24;;;;;;;1.83;1.45;;;26.80;88.50;;;;;;5039227;28;20208;-80
2022/08/30 12:33:55;;;;;;;1.40;1.30;;;27.20;88.30;;;;;;5056969;28;20161;-77
2022/08/30 12:36:38;;;;;;;3.95;1.38;;;26.50;87.90;;;;;;5039437;28;20189;-78
2022/08/30 12:39:14;;;;;;;8.13;1.50;;;26.60;87.90;;;;;;5030733;22;20225;-81
2022/08/30 12:41:40;;;;;;;2.88;1.35;;;26.10;90.10;;;;;;5000308;28;20184;-81
2022/08/30 12:44:13;;;;;;;7.32;1.60;;;25.90;88.20;;;;;;5019682;28;20638;-81
2022/08/30 12:46:40;;;;;;;2.72;1.35;;;26.20;89.30;;;;;;5018903;28;20163;-81
2022/08/30 12:49:06;;;;;;;4.40;1.75;;;26.20;90.00;;;;;;5001143;28;20655;-82
2022/08/30 12:51:40;;;;;;;1.77;1.25;;;25.50;87.90;;;;;;5013391;28;20190;-81
2022/08/30 12:54:18;;;;;;;3.13;1.33;;;25.40;88.40;;;;;;5016230;28;20191;-82
2022/08/30 12:56:49;;;;;;;8.73;2.45;;;25.80;89.30;;;;;;4997893;28;20516;-82
2022/08/30 12:59:50;;;;;;;4.22;1.33;;;25.80;88.50;;;;;;4997564;28;20253;-81
2022/08/30 13:02:25;;;;;;;6.32;1.73;;;25.80;86.70;;;;;;5013689;28;20187;-81
2022/08/30 13:04:52;;;;;;;2.88;1.27;;;25.80;87.40;;;;;;5009589;28;20194;-83
2022/08/30 13:07:34;;;;;;;2.42;1.30;;;24.70;88.60;;;;;;4998710;28;20541;-83
2022/08/30 13:10:18;;;;;;;2.85;1.52;;;24.80;88.60;;;;;;5016750;28;20174;-84